Hlavní strana
METAR-TAF:

METAR-TAF

Letiště :

Bessemer, Alabama, Spojené státy americké

zeměpisná šířka: 33-18-45N, zeměpisná délka: 086-55-35W, výška: 213 m

Aktuální stav počasí

Zpráva byla vytvořena před 1 hodinou a 7 minutami, v 09:56 UTC
Jihojihovýchodní vítr 3 kt
Teplota 22°C
Vlhkost vzduchu 88%
Tlak 1021 hPa
Viditelnost: 16.1 km
Jasno

METAR: KEKY 240956Z AUTO 16003KT 10SM CLR 22/20 A3015 RMK AO2 SLP213 T02220200

Čas: 06:03 (11:03 UTC)


TAF: chybějící

Stav a předpovědi počasí z více než 4 000 letišť (zprávy METAR a TAF).

Červené a žluté tečky na mapě představují dostupné meteorologické stanice.

Když kurzor umístíte na tečku, zobrazí se název stanice.

Pak kliknutím zobrazíte stav a předpověď počasí.

Chcete-li změnit mapu, kliknutím na zelené tlačítko se znaménkem +mapu přiblížíte, kliknutím na zelené tlačítko se znaménkem – mapu oddálíte a kliknutím na zelené šipky přejdete na sousední mapy.


METAR-TAF: